sensor_id;sensor_type;location;lat;lon;timestamp;P1;durP1;ratioP1;P2;durP2;ratioP2
70675;SDS011;59069;52.242;20.900;2022-11-12T00:00:17;21.77;;;10.33;;
70675;SDS011;59069;52.242;20.900;2022-11-12T00:02:43;23.48;;;10.95;;
70675;SDS011;59069;52.242;20.900;2022-11-12T00:05:08;26.20;;;10.67;;
70675;SDS011;59069;52.242;20.900;2022-11-12T00:07:34;24.67;;;10.67;;
70675;SDS011;59069;52.242;20.900;2022-11-12T00:09:59;20.63;;;10.70;;
70675;SDS011;59069;52.242;20.900;2022-11-12T00:12:25;21.90;;;11.40;;
70675;SDS011;59069;52.242;20.900;2022-11-12T00:14:50;21.03;;;10.43;;
70675;SDS011;59069;52.242;20.900;2022-11-12T00:17:15;20.87;;;10.33;;
70675;SDS011;59069;52.242;20.900;2022-11-12T00:19:41;20.10;;;10.45;;
70675;SDS011;59069;52.242;20.900;2022-11-12T00:22:06;24.30;;;10.80;;
70675;SDS011;59069;52.242;20.900;2022-11-12T00:24:32;22.07;;;10.50;;
70675;SDS011;59069;52.242;20.900;2022-11-12T00:26:57;19.87;;;10.47;;
70675;SDS011;59069;52.242;20.900;2022-11-12T00:29:23;20.92;;;10.45;;
70675;SDS011;59069;52.242;20.900;2022-11-12T00:31:48;26.90;;;10.37;;
70675;SDS011;59069;52.242;20.900;2022-11-12T00:34:13;24.43;;;10.07;;
70675;SDS011;59069;52.242;20.900;2022-11-12T00:36:39;24.80;;;10.10;;
70675;SDS011;59069;52.242;20.900;2022-11-12T00:39:05;22.83;;;9.87;;
70675;SDS011;59069;52.242;20.900;2022-11-12T00:41:30;21.93;;;10.33;;
70675;SDS011;59069;52.242;20.900;2022-11-12T00:43:55;18.57;;;9.70;;
70675;SDS011;59069;52.242;20.900;2022-11-12T00:46:21;24.48;;;10.02;;
70675;SDS011;59069;52.242;20.900;2022-11-12T00:48:46;20.27;;;9.60;;
70675;SDS011;59069;52.242;20.900;2022-11-12T00:51:12;22.73;;;10.03;;
70675;SDS011;59069;52.242;20.900;2022-11-12T00:53:37;21.07;;;9.50;;
70675;SDS011;59069;52.242;20.900;2022-11-12T00:56:03;22.15;;;9.57;;
70675;SDS011;59069;52.242;20.900;2022-11-12T00:58:30;21.10;;;9.23;;
70675;SDS011;59069;52.242;20.900;2022-11-12T01:00:57;22.20;;;9.90;;
70675;SDS011;59069;52.242;20.900;2022-11-12T01:03:32;24.92;;;9.52;;
70675;SDS011;59069;52.242;20.900;2022-11-12T01:06:02;23.03;;;9.93;;
70675;SDS011;59069;52.242;20.900;2022-11-12T01:08:28;22.23;;;10.18;;
70675;SDS011;59069;52.242;20.900;2022-11-12T01:10:54;22.80;;;9.45;;
70675;SDS011;59069;52.242;20.900;2022-11-12T01:13:20;19.10;;;9.27;;
70675;SDS011;59069;52.242;20.900;2022-11-12T01:15:45;16.70;;;9.15;;
70675;SDS011;59069;52.242;20.900;2022-11-12T01:18:10;20.60;;;9.13;;
70675;SDS011;59069;52.242;20.900;2022-11-12T01:20:37;19.90;;;9.13;;
70675;SDS011;59069;52.242;20.900;2022-11-12T01:23:03;22.50;;;9.25;;
70675;SDS011;59069;52.242;20.900;2022-11-12T01:25:29;21.67;;;9.65;;
70675;SDS011;59069;52.242;20.900;2022-11-12T01:27:55;23.17;;;9.80;;
70675;SDS011;59069;52.242;20.900;2022-11-12T01:30:20;23.53;;;9.40;;
70675;SDS011;59069;52.242;20.900;2022-11-12T01:32:46;20.13;;;9.45;;
70675;SDS011;59069;52.242;20.900;2022-11-12T01:35:12;21.47;;;9.70;;
70675;SDS011;59069;52.242;20.900;2022-11-12T01:37:37;20.95;;;8.80;;
70675;SDS011;59069;52.242;20.900;2022-11-12T01:40:03;17.53;;;8.27;;
70675;SDS011;59069;52.242;20.900;2022-11-12T01:42:29;19.65;;;8.95;;
70675;SDS011;59069;52.242;20.900;2022-11-12T01:44:56;19.15;;;9.77;;
70675;SDS011;59069;52.242;20.900;2022-11-12T01:47:23;19.70;;;9.30;;
70675;SDS011;59069;52.242;20.900;2022-11-12T01:52:54;19.27;;;9.40;;
70675;SDS011;59069;52.242;20.900;2022-11-12T01:55:27;20.40;;;9.25;;
70675;SDS011;59069;52.242;20.900;2022-11-12T01:57:58;23.17;;;9.30;;
70675;SDS011;59069;52.242;20.900;2022-11-12T02:00:28;21.83;;;9.82;;
70675;SDS011;59069;52.242;20.900;2022-11-12T02:02:55;19.93;;;9.43;;
70675;SDS011;59069;52.242;20.900;2022-11-12T02:05:23;22.15;;;9.70;;
70675;SDS011;59069;52.242;20.900;2022-11-12T02:07:49;24.73;;;10.32;;
70675;SDS011;59069;52.242;20.900;2022-11-12T02:10:16;24.65;;;10.50;;
70675;SDS011;59069;52.242;20.900;2022-11-12T02:12:42;22.93;;;10.27;;
70675;SDS011;59069;52.242;20.900;2022-11-12T02:15:26;21.58;;;9.80;;
70675;SDS011;59069;52.242;20.900;2022-11-12T02:17:52;23.87;;;10.57;;
70675;SDS011;59069;52.242;20.900;2022-11-12T02:20:18;24.13;;;10.60;;
70675;SDS011;59069;52.242;20.900;2022-11-12T02:22:43;21.07;;;10.00;;
70675;SDS011;59069;52.242;20.900;2022-11-12T02:25:11;25.40;;;10.65;;
70675;SDS011;59069;52.242;20.900;2022-11-12T02:27:40;23.65;;;9.57;;
70675;SDS011;59069;52.242;20.900;2022-11-12T02:30:06;21.17;;;10.70;;
70675;SDS011;59069;52.242;20.900;2022-11-12T02:32:32;22.87;;;10.67;;
70675;SDS011;59069;52.242;20.900;2022-11-12T02:34:58;28.88;;;12.15;;
70675;SDS011;59069;52.242;20.900;2022-11-12T02:37:23;20.90;;;10.60;;
70675;SDS011;59069;52.242;20.900;2022-11-12T02:39:49;23.90;;;11.37;;
70675;SDS011;59069;52.242;20.900;2022-11-12T02:42:14;23.63;;;11.45;;
70675;SDS011;59069;52.242;20.900;2022-11-12T02:44:40;25.90;;;11.00;;
70675;SDS011;59069;52.242;20.900;2022-11-12T02:47:05;23.07;;;10.47;;
70675;SDS011;59069;52.242;20.900;2022-11-12T02:49:30;23.67;;;10.65;;
70675;SDS011;59069;52.242;20.900;2022-11-12T02:51:56;21.40;;;10.07;;
70675;SDS011;59069;52.242;20.900;2022-11-12T02:54:21;26.77;;;10.10;;
70675;SDS011;59069;52.242;20.900;2022-11-12T02:56:47;24.63;;;10.90;;
70675;SDS011;59069;52.242;20.900;2022-11-12T02:59:12;23.65;;;10.35;;
70675;SDS011;59069;52.242;20.900;2022-11-12T03:01:38;23.63;;;10.20;;
70675;SDS011;59069;52.242;20.900;2022-11-12T03:04:03;22.50;;;10.10;;
70675;SDS011;59069;52.242;20.900;2022-11-12T03:06:28;21.33;;;9.73;;
70675;SDS011;59069;52.242;20.900;2022-11-12T03:08:54;21.67;;;10.48;;
70675;SDS011;59069;52.242;20.900;2022-11-12T03:11:19;22.30;;;10.20;;
70675;SDS011;59069;52.242;20.900;2022-11-12T03:13:45;20.63;;;10.17;;
70675;SDS011;59069;52.242;20.900;2022-11-12T03:16:10;23.10;;;9.87;;
70675;SDS011;59069;52.242;20.900;2022-11-12T03:18:36;22.27;;;10.38;;
70675;SDS011;59069;52.242;20.900;2022-11-12T03:21:02;21.13;;;10.33;;
70675;SDS011;59069;52.242;20.900;2022-11-12T03:23:28;21.23;;;9.57;;
70675;SDS011;59069;52.242;20.900;2022-11-12T03:25:54;24.50;;;9.23;;
70675;SDS011;59069;52.242;20.900;2022-11-12T03:28:19;20.65;;;9.93;;
70675;SDS011;59069;52.242;20.900;2022-11-12T03:30:44;24.43;;;9.50;;
70675;SDS011;59069;52.242;20.900;2022-11-12T03:33:10;22.20;;;10.10;;
70675;SDS011;59069;52.242;20.900;2022-11-12T03:35:37;25.00;;;10.50;;
70675;SDS011;59069;52.242;20.900;2022-11-12T03:38:04;21.25;;;9.75;;
70675;SDS011;59069;52.242;20.900;2022-11-12T03:40:30;21.85;;;10.05;;
70675;SDS011;59069;52.242;20.900;2022-11-12T03:42:56;24.50;;;10.13;;
70675;SDS011;59069;52.242;20.900;2022-11-12T03:45:22;23.85;;;9.95;;
70675;SDS011;59069;52.242;20.900;2022-11-12T03:47:50;22.58;;;9.23;;
70675;SDS011;59069;52.242;20.900;2022-11-12T03:50:17;20.75;;;10.52;;
70675;SDS011;59069;52.242;20.900;2022-11-12T03:52:48;21.80;;;9.90;;
70675;SDS011;59069;52.242;20.900;2022-11-12T03:55:15;23.80;;;9.50;;
70675;SDS011;59069;52.242;20.900;2022-11-12T03:57:42;20.30;;;9.65;;
70675;SDS011;59069;52.242;20.900;2022-11-12T04:00:08;22.17;;;10.13;;
70675;SDS011;59069;52.242;20.900;2022-11-12T04:02:35;21.67;;;10.20;;
70675;SDS011;59069;52.242;20.900;2022-11-12T04:05:01;21.08;;;9.82;;
70675;SDS011;59069;52.242;20.900;2022-11-12T04:07:49;20.65;;;9.88;;
70675;SDS011;59069;52.242;20.900;2022-11-12T04:10:38;22.87;;;9.13;;
70675;SDS011;59069;52.242;20.900;2022-11-12T04:13:04;19.55;;;9.50;;
70675;SDS011;59069;52.242;20.900;2022-11-12T04:15:48;21.43;;;9.83;;
70675;SDS011;59069;52.242;20.900;2022-11-12T04:18:33;22.30;;;10.07;;
70675;SDS011;59069;52.242;20.900;2022-11-12T04:21:17;21.35;;;9.77;;
70675;SDS011;59069;52.242;20.900;2022-11-12T04:24:01;22.75;;;10.57;;
70675;SDS011;59069;52.242;20.900;2022-11-12T04:26:26;23.33;;;10.37;;
70675;SDS011;59069;52.242;20.900;2022-11-12T04:28:52;23.87;;;9.47;;
70675;SDS011;59069;52.242;20.900;2022-11-12T04:31:35;23.05;;;9.60;;
70675;SDS011;59069;52.242;20.900;2022-11-12T04:34:01;22.60;;;9.80;;
70675;SDS011;59069;52.242;20.900;2022-11-12T04:36:46;20.55;;;10.02;;
70675;SDS011;59069;52.242;20.900;2022-11-12T04:39:12;22.80;;;9.53;;
70675;SDS011;59069;52.242;20.900;2022-11-12T04:41:37;23.37;;;10.23;;
70675;SDS011;59069;52.242;20.900;2022-11-12T04:44:21;22.33;;;10.70;;
70675;SDS011;59069;52.242;20.900;2022-11-12T04:47:05;26.98;;;12.38;;
70675;SDS011;59069;52.242;20.900;2022-11-12T04:49:31;25.70;;;12.67;;
70675;SDS011;59069;52.242;20.900;2022-11-12T04:51:56;26.70;;;12.50;;
70675;SDS011;59069;52.242;20.900;2022-11-12T04:54:31;26.00;;;12.97;;
70675;SDS011;59069;52.242;20.900;2022-11-12T04:56:57;23.85;;;11.70;;
70675;SDS011;59069;52.242;20.900;2022-11-12T04:59:23;31.75;;;12.82;;
70675;SDS011;59069;52.242;20.900;2022-11-12T05:01:49;26.33;;;11.97;;
70675;SDS011;59069;52.242;20.900;2022-11-12T05:04:14;26.40;;;12.18;;
70675;SDS011;59069;52.242;20.900;2022-11-12T05:06:40;27.33;;;11.03;;
70675;SDS011;59069;52.242;20.900;2022-11-12T05:09:22;28.92;;;11.50;;
70675;SDS011;59069;52.242;20.900;2022-11-12T05:11:50;25.15;;;12.52;;
70675;SDS011;59069;52.242;20.900;2022-11-12T05:14:16;28.25;;;12.45;;
70675;SDS011;59069;52.242;20.900;2022-11-12T05:16:42;28.57;;;12.63;;
70675;SDS011;59069;52.242;20.900;2022-11-12T05:19:07;24.77;;;12.43;;
70675;SDS011;59069;52.242;20.900;2022-11-12T05:21:33;25.47;;;12.83;;
70675;SDS011;59069;52.242;20.900;2022-11-12T05:24:17;27.00;;;13.10;;
70675;SDS011;59069;52.242;20.900;2022-11-12T05:26:43;27.87;;;12.80;;
70675;SDS011;59069;52.242;20.900;2022-11-12T05:29:08;31.40;;;13.03;;
70675;SDS011;59069;52.242;20.900;2022-11-12T05:31:34;27.60;;;12.37;;
70675;SDS011;59069;52.242;20.900;2022-11-12T05:34:00;26.52;;;12.50;;
70675;SDS011;59069;52.242;20.900;2022-11-12T05:36:25;28.87;;;13.27;;
70675;SDS011;59069;52.242;20.900;2022-11-12T05:38:51;28.43;;;12.80;;
70675;SDS011;59069;52.242;20.900;2022-11-12T05:41:16;27.57;;;13.13;;
70675;SDS011;59069;52.242;20.900;2022-11-12T05:43:42;28.13;;;13.70;;
70675;SDS011;59069;52.242;20.900;2022-11-12T05:46:07;29.07;;;13.47;;
70675;SDS011;59069;52.242;20.900;2022-11-12T05:48:33;27.58;;;13.15;;
70675;SDS011;59069;52.242;20.900;2022-11-12T05:50:59;28.70;;;14.37;;
70675;SDS011;59069;52.242;20.900;2022-11-12T05:53:24;33.70;;;13.30;;
70675;SDS011;59069;52.242;20.900;2022-11-12T05:55:50;26.88;;;12.43;;
70675;SDS011;59069;52.242;20.900;2022-11-12T05:58:15;26.63;;;13.20;;
70675;SDS011;59069;52.242;20.900;2022-11-12T06:00:41;27.90;;;12.57;;
70675;SDS011;59069;52.242;20.900;2022-11-12T06:03:07;29.17;;;12.90;;
70675;SDS011;59069;52.242;20.900;2022-11-12T06:05:34;29.10;;;13.30;;
70675;SDS011;59069;52.242;20.900;2022-11-12T06:08:00;25.35;;;12.32;;
70675;SDS011;59069;52.242;20.900;2022-11-12T06:10:26;32.83;;;14.30;;
70675;SDS011;59069;52.242;20.900;2022-11-12T06:12:52;28.67;;;12.35;;
70675;SDS011;59069;52.242;20.900;2022-11-12T06:15:18;32.60;;;13.73;;
70675;SDS011;59069;52.242;20.900;2022-11-12T06:17:44;29.40;;;13.20;;
70675;SDS011;59069;52.242;20.900;2022-11-12T06:20:09;30.00;;;13.57;;
70675;SDS011;59069;52.242;20.900;2022-11-12T06:22:35;32.97;;;14.43;;
70675;SDS011;59069;52.242;20.900;2022-11-12T06:25:01;33.97;;;14.30;;
70675;SDS011;59069;52.242;20.900;2022-11-12T06:27:27;32.72;;;15.27;;
70675;SDS011;59069;52.242;20.900;2022-11-12T06:29:53;37.17;;;15.63;;
70675;SDS011;59069;52.242;20.900;2022-11-12T06:32:18;35.03;;;15.97;;
70675;SDS011;59069;52.242;20.900;2022-11-12T06:34:44;34.78;;;16.33;;
70675;SDS011;59069;52.242;20.900;2022-11-12T06:37:09;30.80;;;14.47;;
70675;SDS011;59069;52.242;20.900;2022-11-12T06:39:34;35.27;;;14.97;;
70675;SDS011;59069;52.242;20.900;2022-11-12T06:42:00;36.78;;;15.38;;
70675;SDS011;59069;52.242;20.900;2022-11-12T06:44:26;35.30;;;14.93;;
70675;SDS011;59069;52.242;20.900;2022-11-12T06:46:52;40.03;;;14.85;;
70675;SDS011;59069;52.242;20.900;2022-11-12T06:49:17;31.53;;;13.77;;
70675;SDS011;59069;52.242;20.900;2022-11-12T06:51:43;33.33;;;13.87;;
70675;SDS011;59069;52.242;20.900;2022-11-12T06:54:08;32.50;;;14.10;;
70675;SDS011;59069;52.242;20.900;2022-11-12T06:56:34;31.43;;;13.10;;
70675;SDS011;59069;52.242;20.900;2022-11-12T06:58:59;34.20;;;14.37;;
70675;SDS011;59069;52.242;20.900;2022-11-12T07:01:25;35.03;;;14.32;;
70675;SDS011;59069;52.242;20.900;2022-11-12T07:03:51;35.93;;;14.53;;
70675;SDS011;59069;52.242;20.900;2022-11-12T07:06:17;35.22;;;14.50;;
70675;SDS011;59069;52.242;20.900;2022-11-12T07:08:44;40.03;;;16.60;;
70675;SDS011;59069;52.242;20.900;2022-11-12T07:11:11;38.38;;;15.80;;
70675;SDS011;59069;52.242;20.900;2022-11-12T07:13:37;35.65;;;14.52;;
70675;SDS011;59069;52.242;20.900;2022-11-12T07:16:04;34.30;;;15.65;;
70675;SDS011;59069;52.242;20.900;2022-11-12T07:18:31;36.40;;;15.50;;
70675;SDS011;59069;52.242;20.900;2022-11-12T07:21:05;35.25;;;16.05;;
70675;SDS011;59069;52.242;20.900;2022-11-12T07:23:33;39.65;;;16.48;;
70675;SDS011;59069;52.242;20.900;2022-11-12T07:26:07;40.90;;;16.27;;
70675;SDS011;59069;52.242;20.900;2022-11-12T07:28:53;37.10;;;16.92;;
70675;SDS011;59069;52.242;20.900;2022-11-12T07:31:21;33.00;;;15.30;;
70675;SDS011;59069;52.242;20.900;2022-11-12T07:33:47;41.20;;;16.90;;
70675;SDS011;59069;52.242;20.900;2022-11-12T07:36:17;37.22;;;16.35;;
70675;SDS011;59069;52.242;20.900;2022-11-12T07:38:44;37.73;;;17.03;;
70675;SDS011;59069;52.242;20.900;2022-11-12T07:41:14;41.33;;;15.80;;
70675;SDS011;59069;52.242;20.900;2022-11-12T07:43:41;43.55;;;16.80;;
70675;SDS011;59069;52.242;20.900;2022-11-12T07:46:14;38.72;;;17.20;;
70675;SDS011;59069;52.242;20.900;2022-11-12T07:48:42;41.97;;;17.50;;
70675;SDS011;59069;52.242;20.900;2022-11-12T07:51:12;37.67;;;16.53;;
70675;SDS011;59069;52.242;20.900;2022-11-12T07:53:45;38.30;;;17.13;;
70675;SDS011;59069;52.242;20.900;2022-11-12T07:56:11;43.67;;;17.55;;
70675;SDS011;59069;52.242;20.900;2022-11-12T07:58:39;40.25;;;17.50;;
70675;SDS011;59069;52.242;20.900;2022-11-12T08:01:08;38.13;;;16.75;;
70675;SDS011;59069;52.242;20.900;2022-11-12T08:03:35;36.87;;;17.00;;
70675;SDS011;59069;52.242;20.900;2022-11-12T08:06:01;39.83;;;17.85;;
70675;SDS011;59069;52.242;20.900;2022-11-12T08:08:27;39.50;;;17.80;;
70675;SDS011;59069;52.242;20.900;2022-11-12T08:10:54;34.23;;;16.47;;
70675;SDS011;59069;52.242;20.900;2022-11-12T08:13:20;36.75;;;17.33;;
70675;SDS011;59069;52.242;20.900;2022-11-12T08:15:45;37.93;;;16.93;;
70675;SDS011;59069;52.242;20.900;2022-11-12T08:18:11;36.53;;;16.67;;
70675;SDS011;59069;52.242;20.900;2022-11-12T08:20:37;39.15;;;16.38;;
70675;SDS011;59069;52.242;20.900;2022-11-12T08:23:02;36.27;;;16.57;;
70675;SDS011;59069;52.242;20.900;2022-11-12T08:25:28;41.50;;;17.60;;
70675;SDS011;59069;52.242;20.900;2022-11-12T08:27:57;35.90;;;16.33;;
70675;SDS011;59069;52.242;20.900;2022-11-12T08:30:24;37.23;;;16.60;;
70675;SDS011;59069;52.242;20.900;2022-11-12T08:32:57;36.63;;;15.05;;
70675;SDS011;59069;52.242;20.900;2022-11-12T08:35:24;37.53;;;17.27;;
70675;SDS011;59069;52.242;20.900;2022-11-12T08:37:50;40.22;;;16.55;;
70675;SDS011;59069;52.242;20.900;2022-11-12T08:40:16;40.80;;;16.90;;
70675;SDS011;59069;52.242;20.900;2022-11-12T08:42:42;40.47;;;18.15;;
70675;SDS011;59069;52.242;20.900;2022-11-12T08:45:07;42.03;;;17.33;;
70675;SDS011;59069;52.242;20.900;2022-11-12T08:47:33;44.47;;;17.55;;
70675;SDS011;59069;52.242;20.900;2022-11-12T08:49:59;41.13;;;17.50;;
70675;SDS011;59069;52.242;20.900;2022-11-12T08:52:24;39.93;;;17.73;;
70675;SDS011;59069;52.242;20.900;2022-11-12T08:54:50;41.88;;;18.95;;
70675;SDS011;59069;52.242;20.900;2022-11-12T08:57:15;40.20;;;17.47;;
70675;SDS011;59069;52.242;20.900;2022-11-12T08:59:41;36.80;;;17.17;;
70675;SDS011;59069;52.242;20.900;2022-11-12T09:02:10;39.70;;;18.07;;
70675;SDS011;59069;52.242;20.900;2022-11-12T09:04:37;40.80;;;18.80;;
70675;SDS011;59069;52.242;20.900;2022-11-12T09:07:03;43.13;;;17.83;;
70675;SDS011;59069;52.242;20.900;2022-11-12T09:09:28;37.97;;;18.47;;
70675;SDS011;59069;52.242;20.900;2022-11-12T09:11:54;37.90;;;18.50;;
70675;SDS011;59069;52.242;20.900;2022-11-12T09:14:19;38.00;;;18.27;;
70675;SDS011;59069;52.242;20.900;2022-11-12T09:16:45;39.63;;;17.83;;
70675;SDS011;59069;52.242;20.900;2022-11-12T09:19:10;36.47;;;16.60;;
70675;SDS011;59069;52.242;20.900;2022-11-12T09:21:36;39.28;;;18.00;;
70675;SDS011;59069;52.242;20.900;2022-11-12T09:24:01;43.67;;;18.77;;
70675;SDS011;59069;52.242;20.900;2022-11-12T09:26:27;42.57;;;18.10;;
70675;SDS011;59069;52.242;20.900;2022-11-12T09:28:52;40.15;;;18.17;;
70675;SDS011;59069;52.242;20.900;2022-11-12T09:31:19;36.10;;;17.67;;
70675;SDS011;59069;52.242;20.900;2022-11-12T09:33:45;40.53;;;18.83;;
70675;SDS011;59069;52.242;20.900;2022-11-12T09:36:10;40.53;;;18.33;;
70675;SDS011;59069;52.242;20.900;2022-11-12T09:38:35;39.80;;;18.63;;
70675;SDS011;59069;52.242;20.900;2022-11-12T09:43:31;42.67;;;19.20;;
70675;SDS011;59069;52.242;20.900;2022-11-12T09:49:07;45.80;;;20.90;;
70675;SDS011;59069;52.242;20.900;2022-11-12T09:51:41;47.83;;;20.58;;
70675;SDS011;59069;52.242;20.900;2022-11-12T09:56:46;38.97;;;17.27;;
70675;SDS011;59069;52.242;20.900;2022-11-12T09:59:13;40.05;;;19.05;;
70675;SDS011;59069;52.242;20.900;2022-11-12T10:01:42;40.60;;;18.50;;
70675;SDS011;59069;52.242;20.900;2022-11-12T10:12:48;45.67;;;20.67;;
70675;SDS011;59069;52.242;20.900;2022-11-12T10:15:31;40.33;;;19.45;;
70675;SDS011;59069;52.242;20.900;2022-11-12T10:20:53;38.33;;;18.73;;
70675;SDS011;59069;52.242;20.900;2022-11-12T10:23:29;43.47;;;20.30;;
70675;SDS011;59069;52.242;20.900;2022-11-12T10:26:00;37.70;;;18.77;;
70675;SDS011;59069;52.242;20.900;2022-11-12T10:28:39;37.80;;;20.10;;
70675;SDS011;59069;52.242;20.900;2022-11-12T10:31:27;39.13;;;19.65;;
70675;SDS011;59069;52.242;20.900;2022-11-12T10:36:43;36.00;;;18.05;;
70675;SDS011;59069;52.242;20.900;2022-11-12T10:42:09;35.78;;;18.77;;
70675;SDS011;59069;52.242;20.900;2022-11-12T10:44:42;35.87;;;16.83;;
70675;SDS011;59069;52.242;20.900;2022-11-12T10:52:39;33.58;;;17.70;;
70675;SDS011;59069;52.242;20.900;2022-11-12T10:57:44;35.30;;;17.27;;
70675;SDS011;59069;52.242;20.900;2022-11-12T11:08:43;33.97;;;17.27;;
70675;SDS011;59069;52.242;20.900;2022-11-12T11:11:13;32.55;;;17.90;;
70675;SDS011;59069;52.242;20.900;2022-11-12T11:13:44;49.28;;;28.40;;
70675;SDS011;59069;52.242;20.900;2022-11-12T11:16:12;34.20;;;17.30;;
70675;SDS011;59069;52.242;20.900;2022-11-12T11:18:44;35.03;;;17.23;;
70675;SDS011;59069;52.242;20.900;2022-11-12T11:21:21;33.58;;;18.13;;
70675;SDS011;59069;52.242;20.900;2022-11-12T11:32:10;27.97;;;15.00;;
70675;SDS011;59069;52.242;20.900;2022-11-12T11:37:45;29.33;;;15.05;;
70675;SDS011;59069;52.242;20.900;2022-11-12T11:40:33;28.55;;;13.68;;
70675;SDS011;59069;52.242;20.900;2022-11-12T11:45:53;27.93;;;12.23;;
70675;SDS011;59069;52.242;20.900;2022-11-12T11:51:19;29.15;;;12.43;;
70675;SDS011;59069;52.242;20.900;2022-11-12T11:54:10;30.15;;;13.95;;
70675;SDS011;59069;52.242;20.900;2022-11-12T11:56:43;28.15;;;13.52;;
70675;SDS011;59069;52.242;20.900;2022-11-12T12:04:50;26.97;;;12.20;;
70675;SDS011;59069;52.242;20.900;2022-11-12T12:12:53;25.17;;;11.60;;
70675;SDS011;59069;52.242;20.900;2022-11-12T12:26:15;26.73;;;11.43;;
70675;SDS011;59069;52.242;20.900;2022-11-12T12:28:53;26.15;;;11.23;;
70675;SDS011;59069;52.242;20.900;2022-11-12T12:31:31;24.43;;;10.73;;
70675;SDS011;59069;52.242;20.900;2022-11-12T12:34:03;26.20;;;10.35;;
70675;SDS011;59069;52.242;20.900;2022-11-12T12:36:36;21.95;;;10.10;;
70675;SDS011;59069;52.242;20.900;2022-11-12T12:39:09;22.38;;;9.93;;
70675;SDS011;59069;52.242;20.900;2022-11-12T12:41:45;23.63;;;9.68;;
70675;SDS011;59069;52.242;20.900;2022-11-12T12:44:26;22.10;;;9.87;;
70675;SDS011;59069;52.242;20.900;2022-11-12T12:47:17;22.75;;;9.48;;
70675;SDS011;59069;52.242;20.900;2022-11-12T12:49:44;22.08;;;9.52;;
70675;SDS011;59069;52.242;20.900;2022-11-12T12:52:12;25.45;;;11.73;;
70675;SDS011;59069;52.242;20.900;2022-11-12T12:57:24;23.67;;;10.57;;
70675;SDS011;59069;52.242;20.900;2022-11-12T13:06:06;21.02;;;9.15;;
70675;SDS011;59069;52.242;20.900;2022-11-12T13:08:33;26.70;;;10.85;;
70675;SDS011;59069;52.242;20.900;2022-11-12T13:11:00;26.17;;;10.13;;
70675;SDS011;59069;52.242;20.900;2022-11-12T13:13:30;23.50;;;9.38;;
70675;SDS011;59069;52.242;20.900;2022-11-12T13:15:57;23.70;;;10.93;;
70675;SDS011;59069;52.242;20.900;2022-11-12T13:19:09;24.67;;;10.52;;
70675;SDS011;59069;52.242;20.900;2022-11-12T13:21:16;21.27;;;10.18;;
70675;SDS011;59069;52.242;20.900;2022-11-12T13:26:48;21.70;;;10.35;;
70675;SDS011;59069;52.242;20.900;2022-11-12T13:29:20;24.90;;;10.80;;
70675;SDS011;59069;52.242;20.900;2022-11-12T13:31:47;22.92;;;11.05;;
70675;SDS011;59069;52.242;20.900;2022-11-12T13:34:22;27.33;;;11.35;;
70675;SDS011;59069;52.242;20.900;2022-11-12T13:36:58;25.43;;;11.03;;
70675;SDS011;59069;52.242;20.900;2022-11-12T13:39:26;23.98;;;11.13;;
70675;SDS011;59069;52.242;20.900;2022-11-12T13:41:58;23.58;;;11.55;;
70675;SDS011;59069;52.242;20.900;2022-11-12T13:44:44;24.52;;;11.88;;
70675;SDS011;59069;52.242;20.900;2022-11-12T13:47:16;24.67;;;12.18;;
70675;SDS011;59069;52.242;20.900;2022-11-12T13:49:45;23.47;;;11.87;;
70675;SDS011;59069;52.242;20.900;2022-11-12T13:52:12;25.20;;;12.30;;
70675;SDS011;59069;52.242;20.900;2022-11-12T13:54:39;27.60;;;13.27;;
70675;SDS011;59069;52.242;20.900;2022-11-12T14:00:05;30.85;;;14.13;;
70675;SDS011;59069;52.242;20.900;2022-11-12T14:05:25;33.58;;;15.32;;
70675;SDS011;59069;52.242;20.900;2022-11-12T14:15:58;30.57;;;16.00;;
70675;SDS011;59069;52.242;20.900;2022-11-12T14:19:16;29.67;;;15.23;;
70675;SDS011;59069;52.242;20.900;2022-11-12T14:21:25;34.90;;;16.02;;
70675;SDS011;59069;52.242;20.900;2022-11-12T14:23:50;32.83;;;15.90;;
70675;SDS011;59069;52.242;20.900;2022-11-12T14:26:36;31.25;;;16.08;;
70675;SDS011;59069;52.242;20.900;2022-11-12T14:29:03;31.33;;;15.50;;
70675;SDS011;59069;52.242;20.900;2022-11-12T14:31:29;30.55;;;15.57;;
70675;SDS011;59069;52.242;20.900;2022-11-12T14:33:55;35.87;;;16.43;;
70675;SDS011;59069;52.242;20.900;2022-11-12T14:36:20;34.43;;;16.50;;
70675;SDS011;59069;52.242;20.900;2022-11-12T14:38:48;32.97;;;15.98;;
70675;SDS011;59069;52.242;20.900;2022-11-12T14:43:52;31.98;;;16.42;;
70675;SDS011;59069;52.242;20.900;2022-11-12T14:46:32;32.90;;;17.15;;
70675;SDS011;59069;52.242;20.900;2022-11-12T14:49:11;35.20;;;16.77;;
70675;SDS011;59069;52.242;20.900;2022-11-12T14:51:48;35.35;;;17.02;;
70675;SDS011;59069;52.242;20.900;2022-11-12T14:54:31;36.58;;;17.27;;
70675;SDS011;59069;52.242;20.900;2022-11-12T14:57:00;31.83;;;16.48;;
70675;SDS011;59069;52.242;20.900;2022-11-12T14:59:28;34.67;;;17.77;;
70675;SDS011;59069;52.242;20.900;2022-11-12T15:02:00;36.27;;;16.33;;
70675;SDS011;59069;52.242;20.900;2022-11-12T15:04:40;35.72;;;17.05;;
70675;SDS011;59069;52.242;20.900;2022-11-12T15:09:54;32.83;;;15.93;;
70675;SDS011;59069;52.242;20.900;2022-11-12T15:12:20;34.80;;;16.63;;
70675;SDS011;59069;52.242;20.900;2022-11-12T15:14:49;38.60;;;18.02;;
70675;SDS011;59069;52.242;20.900;2022-11-12T15:17:19;33.65;;;17.05;;
70675;SDS011;59069;52.242;20.900;2022-11-12T15:19:52;35.50;;;16.98;;
70675;SDS011;59069;52.242;20.900;2022-11-12T15:22:21;39.03;;;17.93;;
70675;SDS011;59069;52.242;20.900;2022-11-12T15:24:47;37.15;;;17.63;;
70675;SDS011;59069;52.242;20.900;2022-11-12T15:27:26;34.63;;;17.23;;
70675;SDS011;59069;52.242;20.900;2022-11-12T15:30:20;33.55;;;16.95;;
70675;SDS011;59069;52.242;20.900;2022-11-12T15:32:49;39.10;;;18.83;;
70675;SDS011;59069;52.242;20.900;2022-11-12T15:35:31;39.72;;;17.52;;
70675;SDS011;59069;52.242;20.900;2022-11-12T15:37:58;34.58;;;16.85;;
70675;SDS011;59069;52.242;20.900;2022-11-12T15:40:26;35.27;;;17.00;;
70675;SDS011;59069;52.242;20.900;2022-11-12T15:42:52;34.83;;;16.98;;
70675;SDS011;59069;52.242;20.900;2022-11-12T15:45:19;34.33;;;17.02;;
70675;SDS011;59069;52.242;20.900;2022-11-12T15:47:45;33.53;;;15.60;;
70675;SDS011;59069;52.242;20.900;2022-11-12T15:50:15;35.65;;;15.95;;
70675;SDS011;59069;52.242;20.900;2022-11-12T15:52:46;35.33;;;17.00;;
70675;SDS011;59069;52.242;20.900;2022-11-12T15:55:12;31.33;;;14.63;;
70675;SDS011;59069;52.242;20.900;2022-11-12T15:57:43;29.25;;;15.30;;
70675;SDS011;59069;52.242;20.900;2022-11-12T16:00:17;32.25;;;15.48;;
70675;SDS011;59069;52.242;20.900;2022-11-12T16:02:44;34.22;;;15.75;;
70675;SDS011;59069;52.242;20.900;2022-11-12T16:05:14;36.35;;;15.77;;
70675;SDS011;59069;52.242;20.900;2022-11-12T16:07:41;36.43;;;17.03;;
70675;SDS011;59069;52.242;20.900;2022-11-12T16:10:10;38.10;;;16.58;;
70675;SDS011;59069;52.242;20.900;2022-11-12T16:12:37;32.20;;;15.82;;
70675;SDS011;59069;52.242;20.900;2022-11-12T16:15:04;35.67;;;17.53;;